Time;durP1;ratioP1;P1;durP2;ratioP2;P2;SDS_P1;SDS_P2;PMS_P1;PMS_P2;Temp;Humidity;BMP_temperature;BMP_pressure;BME280_temperature;BME280_humidity;BME280_pressure;Samples;Min_cycle;Max_cycle;Signal;HPM_P1;HPM_P2
2021/12/22 00:01:51;;;;;;;14.80;6.38;;;24.70;99.90;;;;;;5044921;28;20032;-67
2021/12/22 00:04:24;;;;;;;15.15;5.65;;;24.60;99.90;;;;;;5053267;28;20131;-67
2021/12/22 00:06:52;;;;;;;11.38;4.07;;;24.50;99.90;;;;;;5052799;28;20037;-67
2021/12/22 00:09:20;;;;;;;11.10;4.60;;;24.50;99.90;;;;;;5055362;28;20025;-67
2021/12/22 00:11:49;;;;;;;15.10;5.05;;;24.60;99.90;;;;;;5051164;28;20094;-67
2021/12/22 00:14:17;;;;;;;9.30;4.93;;;24.50;99.90;;;;;;5038780;28;20068;-67
2021/12/22 00:16:44;;;;;;;11.00;4.03;;;24.50;99.90;;;;;;5041563;28;20128;-67
2021/12/22 00:19:11;;;;;;;13.35;4.72;;;24.50;99.90;;;;;;5050893;28;20029;-68
2021/12/22 00:21:39;;;;;;;11.18;4.57;;;24.70;99.90;;;;;;5052819;28;20557;-68
2021/12/22 00:24:06;;;;;;;13.93;5.60;;;24.90;99.90;;;;;;5055410;28;20013;-68
2021/12/22 00:26:34;;;;;;;11.52;5.65;;;25.00;99.90;;;;;;5053718;28;20036;-67
2021/12/22 00:29:01;;;;;;;10.73;4.90;;;25.00;99.90;;;;;;5055099;28;20474;-68
2021/12/22 00:31:28;;;;;;;9.40;4.38;;;24.90;99.90;;;;;;5054062;28;20362;-68
2021/12/22 00:33:57;;;;;;;9.88;5.32;;;25.10;99.90;;;;;;5035227;28;20035;-68
2021/12/22 00:36:26;;;;;;;13.57;5.55;;;25.10;99.90;;;;;;5040584;28;20021;-68
2021/12/22 00:38:53;;;;;;;11.95;5.20;;;25.20;99.90;;;;;;5054049;28;20021;-68
2021/12/22 00:41:21;;;;;;;11.38;5.65;;;25.40;99.90;;;;;;5052756;28;20362;-68
2021/12/22 00:43:50;;;;;;;15.10;5.43;;;25.50;99.90;;;;;;5055094;28;20048;-68
2021/12/22 00:46:17;;;;;;;15.23;5.00;;;25.90;99.90;;;;;;5054102;28;20052;-68
2021/12/22 00:48:44;;;;;;;12.73;4.78;;;26.40;99.90;;;;;;5051783;28;20021;-68
2021/12/22 00:51:12;;;;;;;12.02;4.68;;;26.20;99.90;;;;;;5039012;28;20035;-68
2021/12/22 00:53:39;;;;;;;13.70;5.55;;;26.30;99.90;;;;;;5054570;28;20397;-68
2021/12/22 00:56:07;;;;;;;11.68;5.03;;;26.40;99.90;;;;;;5055043;28;20480;-69
2021/12/22 00:58:35;;;;;;;12.02;5.57;;;26.50;99.90;;;;;;5052338;28;20032;-70
2021/12/22 01:01:03;;;;;;;8.52;5.30;;;26.20;99.90;;;;;;5054281;28;20114;-69
2021/12/22 01:03:34;;;;;;;14.77;5.53;;;26.50;99.90;;;;;;5049788;28;20493;-70
2021/12/22 01:06:03;;;;;;;10.60;5.60;;;27.00;99.90;;;;;;5037839;28;20443;-69
2021/12/22 01:08:31;;;;;;;12.40;5.43;;;27.10;99.90;;;;;;5043140;28;20027;-70
2021/12/22 01:10:58;;;;;;;11.38;6.05;;;27.00;99.90;;;;;;5052637;28;20027;-69
2021/12/22 01:13:26;;;;;;;11.00;5.82;;;27.10;99.90;;;;;;5053317;28;20037;-70
2021/12/22 01:15:54;;;;;;;10.55;4.90;;;27.00;99.90;;;;;;5051785;28;20106;-70
2021/12/22 01:18:32;;;;;;;9.35;5.80;;;26.80;99.90;;;;;;5034556;28;20038;-70
2021/12/22 01:23:34;;;;;;;13.23;4.82;;;27.10;99.90;;;;;;5034411;28;20029;-70
2021/12/22 01:26:03;;;;;;;;;;;27.00;99.90;;;;;;5052214;28;20040;-69
2021/12/22 01:28:30;;;;;;;12.07;5.63;;;26.60;99.90;;;;;;5053994;28;19905;-70
2021/12/22 01:31:02;;;;;;;13.93;5.47;;;26.20;99.90;;;;;;5053005;28;20108;-70
2021/12/22 01:33:30;;;;;;;12.25;6.35;;;26.50;99.90;;;;;;5053943;28;20028;-71
2021/12/22 01:35:57;;;;;;;9.00;5.35;;;26.90;99.90;;;;;;5051325;28;20028;-70
2021/12/22 01:38:24;;;;;;;12.68;5.97;;;26.90;99.90;;;;;;5053969;28;20052;-69
2021/12/22 01:40:53;;;;;;;10.85;4.10;;;26.60;99.90;;;;;;5052773;28;20381;-70
2021/12/22 01:43:20;;;;;;;10.05;4.88;;;26.40;99.90;;;;;;5036258;28;20124;-71
2021/12/22 01:51:29;;;;;;;9.57;4.38;;;26.00;99.90;;;;;;5047176;28;20091;-69
2021/12/22 01:54:04;;;;;;;11.43;5.65;;;26.30;99.90;;;;;;5053455;28;20044;-69
2021/12/22 01:56:35;;;;;;;11.73;4.85;;;26.60;99.90;;;;;;5063984;28;20091;-68
2021/12/22 01:59:05;;;;;;;12.73;5.07;;;26.40;99.90;;;;;;5052886;28;20025;-69
2021/12/22 02:01:33;;;;;;;10.25;5.07;;;26.50;99.90;;;;;;5042277;28;20025;-69
2021/12/22 02:04:03;;;;;;;9.98;4.80;;;26.70;99.90;;;;;;5033432;28;20401;-69
2021/12/22 02:06:30;;;;;;;9.38;4.88;;;26.80;99.90;;;;;;5051432;28;20111;-69
2021/12/22 02:08:59;;;;;;;8.80;4.55;;;26.90;99.90;;;;;;5053102;28;20027;-68
2021/12/22 02:11:26;;;;;;;8.40;4.50;;;27.10;99.90;;;;;;5051407;28;20119;-69
2021/12/22 02:14:01;;;;;;;10.50;4.75;;;27.40;99.90;;;;;;5048671;28;20041;-69
2021/12/22 02:16:35;;;;;;;12.13;4.60;;;26.70;99.90;;;;;;5038543;28;20440;-69
2021/12/22 02:19:09;;;;;;;10.43;5.60;;;26.70;99.90;;;;;;5052581;28;20132;-69
2021/12/22 02:21:47;;;;;;;8.63;4.35;;;26.50;99.90;;;;;;5052436;28;20037;-69
2021/12/22 02:24:14;;;;;;;8.00;4.40;;;26.80;99.90;;;;;;5052595;28;20032;-70
2021/12/22 02:26:51;;;;;;;7.47;4.78;;;26.90;99.90;;;;;;5046974;28;20112;-69
2021/12/22 02:29:22;;;;;;;6.63;3.67;;;27.10;99.90;;;;;;5047293;28;20492;-69
2021/12/22 02:32:08;;;;;;;9.57;4.63;;;27.10;99.90;;;;;;5051161;28;20056;-69
2021/12/22 02:34:42;;;;;;;12.52;4.55;;;27.10;99.90;;;;;;5051325;28;20444;-69
2021/12/22 02:37:14;;;;;;;8.40;4.07;;;27.40;99.90;;;;;;5051367;28;20047;-69
2021/12/22 02:39:58;;;;;;;16.52;5.13;;;27.60;99.90;;;;;;5053202;28;20100;-69
2021/12/22 02:42:32;;;;;;;9.35;3.63;;;27.40;99.90;;;;;;5050186;28;20372;-69
2021/12/22 02:45:10;;;;;;;10.40;4.88;;;27.20;99.90;;;;;;5051219;28;20037;-68
2021/12/22 02:47:39;;;;;;;13.57;3.85;;;27.20;99.90;;;;;;5047181;28;20060;-68
2021/12/22 02:50:08;;;;;;;9.07;4.18;;;27.00;99.90;;;;;;5032583;28;20065;-68
2021/12/22 02:55:28;;;;;;;10.30;4.10;;;26.80;99.90;;;;;;5052997;28;20039;-69
2021/12/22 02:57:59;;;;;;;11.32;4.07;;;27.10;99.90;;;;;;5045953;28;20017;-69
2021/12/22 03:00:47;;;;;;;9.05;4.13;;;26.90;99.90;;;;;;5034180;28;20027;-68
2021/12/22 03:03:49;;;;;;;8.45;4.47;;;26.70;99.90;;;;;;5049199;28;20029;-68
2021/12/22 03:06:10;;;;;;;10.25;4.10;;;26.90;99.90;;;;;;5050932;28;20482;-68
2021/12/22 03:08:37;;;;;;;9.73;3.90;;;27.10;99.90;;;;;;5052604;28;20021;-68
2021/12/22 03:11:05;;;;;;;12.93;4.90;;;27.30;99.90;;;;;;5051035;28;20128;-68
2021/12/22 03:13:32;;;;;;;7.93;4.57;;;27.20;99.90;;;;;;5052101;28;20076;-69
2021/12/22 03:16:00;;;;;;;10.77;4.40;;;26.90;99.90;;;;;;5042657;28;20040;-68
2021/12/22 03:18:28;;;;;;;9.55;4.53;;;26.70;99.90;;;;;;5042591;28;20021;-68
2021/12/22 03:21:04;;;;;;;11.65;4.70;;;26.60;99.90;;;;;;5049202;28;20021;-68
2021/12/22 03:23:31;;;;;;;10.65;4.43;;;26.90;99.90;;;;;;5038048;28;20025;-68
2021/12/22 03:25:59;;;;;;;13.77;4.70;;;26.60;99.90;;;;;;5034739;28;20474;-67
2021/12/22 03:28:26;;;;;;;14.82;5.63;;;26.50;99.90;;;;;;5047579;28;20021;-68
2021/12/22 03:30:55;;;;;;;7.90;4.72;;;26.30;99.90;;;;;;5049248;28;20083;-68
2021/12/22 03:33:22;;;;;;;6.80;3.53;;;26.40;99.90;;;;;;5031359;28;20034;-70
2021/12/22 03:35:50;;;;;;;9.80;3.30;;;26.50;99.90;;;;;;5031851;28;20033;-70
2021/12/22 03:38:17;;;;;;;15.70;3.50;;;26.50;99.90;;;;;;5037569;28;20041;-70
2021/12/22 03:40:44;;;;;;;12.70;3.30;;;26.50;99.90;;;;;;5044175;28;20041;-70
2021/12/22 03:43:12;;;;;;;10.15;3.83;;;26.60;99.90;;;;;;5051070;28;20021;-70
2021/12/22 03:45:39;;;;;;;11.88;3.97;;;26.40;99.90;;;;;;5052583;28;20564;-70
2021/12/22 03:48:06;;;;;;;12.20;4.40;;;26.10;99.90;;;;;;5033468;28;20037;-71
2021/12/22 03:50:33;;;;;;;10.57;3.60;;;26.50;99.90;;;;;;5041474;28;20033;-71
2021/12/22 03:53:01;;;;;;;16.38;5.07;;;26.50;99.90;;;;;;5063093;28;20052;-71
2021/12/22 03:55:28;;;;;;;16.00;4.70;;;26.70;99.90;;;;;;5049293;28;20132;-70
2021/12/22 03:57:55;;;;;;;15.85;4.30;;;26.60;99.90;;;;;;5046624;28;20040;-70
2021/12/22 04:00:23;;;;;;;14.10;4.07;;;26.40;99.90;;;;;;5042710;28;20155;-67
2021/12/22 04:02:50;;;;;;;12.95;4.97;;;26.40;99.90;;;;;;5044317;28;20458;-68
2021/12/22 04:05:18;;;;;;;15.85;4.55;;;26.60;99.90;;;;;;5045797;28;20044;-67
2021/12/22 04:07:46;;;;;;;16.15;4.60;;;26.20;99.90;;;;;;5049678;28;20401;-68
2021/12/22 04:10:20;;;;;;;18.83;5.20;;;26.10;99.90;;;;;;5051269;28;20072;-67
2021/12/22 04:12:57;;;;;;;18.73;5.65;;;26.30;99.90;;;;;;5047614;28;20040;-67
2021/12/22 04:15:27;;;;;;;13.90;5.63;;;26.60;99.90;;;;;;5055386;28;20462;-67
2021/12/22 04:17:55;;;;;;;12.70;5.40;;;26.40;99.90;;;;;;5052105;28;20033;-67
2021/12/22 04:20:22;;;;;;;15.02;5.50;;;26.20;99.90;;;;;;5040040;28;20032;-68
2021/12/22 04:22:50;;;;;;;16.33;5.32;;;26.10;99.90;;;;;;5065524;28;20113;-67
2021/12/22 04:25:21;;;;;;;20.05;6.35;;;25.80;99.90;;;;;;5055090;28;20095;-67
2021/12/22 04:27:50;;;;;;;18.85;5.72;;;25.60;99.90;;;;;;5054321;28;20029;-69
2021/12/22 04:30:18;;;;;;;12.95;5.10;;;25.60;99.90;;;;;;5058365;28;20048;-68
2021/12/22 04:32:45;;;;;;;19.58;5.78;;;25.60;99.90;;;;;;5063427;28;20025;-68
2021/12/22 04:35:13;;;;;;;21.92;6.65;;;25.40;99.90;;;;;;5058934;28;20040;-68
2021/12/22 04:37:40;;;;;;;17.75;6.93;;;25.30;99.90;;;;;;5055933;28;20029;-68
2021/12/22 04:40:08;;;;;;;18.40;6.05;;;25.40;99.90;;;;;;5053109;28;20021;-68
2021/12/22 04:42:35;;;;;;;15.50;6.03;;;25.50;99.90;;;;;;5057478;28;20489;-69
2021/12/22 04:45:05;;;;;;;14.93;5.93;;;25.40;99.90;;;;;;5060356;28;20059;-68
2021/12/22 04:47:33;;;;;;;19.13;5.68;;;25.40;99.90;;;;;;5058919;28;20056;-68
2021/12/22 04:50:02;;;;;;;18.38;6.18;;;25.20;99.90;;;;;;5056021;28;20118;-68
2021/12/22 04:52:40;;;;;;;16.55;6.32;;;25.00;99.90;;;;;;5066739;28;20119;-68
2021/12/22 04:55:08;;;;;;;20.65;5.35;;;24.80;99.90;;;;;;5077943;28;20056;-68
2021/12/22 04:57:36;;;;;;;18.05;6.22;;;24.80;99.90;;;;;;5058228;28;20047;-68
2021/12/22 05:00:09;;;;;;;12.95;5.50;;;24.80;99.90;;;;;;5055340;28;20028;-68
2021/12/22 05:02:37;;;;;;;19.23;7.00;;;24.80;99.90;;;;;;5052819;28;20033;-68
2021/12/22 05:05:05;;;;;;;18.75;7.15;;;24.50;99.90;;;;;;5056650;28;20033;-68
2021/12/22 05:07:33;;;;;;;13.32;5.68;;;24.50;99.90;;;;;;5054592;28;20029;-68
2021/12/22 05:10:00;;;;;;;15.20;5.43;;;24.70;99.90;;;;;;5053981;28;20048;-70
2021/12/22 05:12:27;;;;;;;14.80;5.50;;;24.80;99.90;;;;;;5051857;28;20503;-69
2021/12/22 05:14:54;;;;;;;19.55;5.63;;;24.70;99.90;;;;;;5053228;28;20045;-68
2021/12/22 05:17:37;;;;;;;13.23;4.93;;;24.70;99.90;;;;;;5050333;28;20429;-68
2021/12/22 05:20:06;;;;;;;12.43;5.25;;;24.70;99.90;;;;;;5055640;28;20028;-69
2021/12/22 05:22:33;;;;;;;17.23;5.63;;;24.30;99.90;;;;;;5052428;28;20083;-68
2021/12/22 05:25:02;;;;;;;14.73;5.40;;;24.40;99.90;;;;;;5051972;28;20401;-68
2021/12/22 05:27:30;;;;;;;18.08;6.00;;;24.40;99.90;;;;;;5051195;28;20052;-68
2021/12/22 05:29:58;;;;;;;14.38;6.72;;;24.40;99.90;;;;;;5049945;28;20036;-68
2021/12/22 05:32:32;;;;;;;17.58;6.50;;;24.20;99.90;;;;;;5036670;28;20048;-68
2021/12/22 05:35:00;;;;;;;14.95;6.95;;;24.20;99.90;;;;;;5034413;28;20046;-68
2021/12/22 05:37:28;;;;;;;12.88;6.25;;;24.10;99.90;;;;;;5050949;28;20120;-68
2021/12/22 05:39:58;;;;;;;14.25;6.82;;;24.10;99.90;;;;;;5054162;28;20036;-68
2021/12/22 05:42:27;;;;;;;16.90;6.63;;;24.10;99.90;;;;;;5052185;28;20078;-68
2021/12/22 05:44:54;;;;;;;17.20;6.85;;;24.20;99.90;;;;;;5048475;28;20481;-68
2021/12/22 05:47:21;;;;;;;13.93;6.25;;;24.10;99.90;;;;;;5049774;28;20055;-69
2021/12/22 05:49:49;;;;;;;14.52;7.18;;;24.10;99.90;;;;;;5056838;28;20035;-68
2021/12/22 05:52:17;;;;;;;19.75;6.38;;;24.10;99.90;;;;;;5052667;28;20044;-69
2021/12/22 05:54:45;;;;;;;11.32;6.82;;;24.00;99.90;;;;;;5052854;28;20124;-68
2021/12/22 05:57:13;;;;;;;14.05;6.40;;;24.00;99.90;;;;;;5048067;28;20389;-68
2021/12/22 05:59:40;;;;;;;14.23;6.93;;;24.10;99.90;;;;;;5050963;28;20021;-68
2021/12/22 06:02:07;;;;;;;13.43;5.93;;;24.10;99.90;;;;;;5052959;28;20021;-68
2021/12/22 06:04:35;;;;;;;20.83;6.63;;;23.90;99.90;;;;;;5051458;28;20056;-67
2021/12/22 06:07:02;;;;;;;20.77;6.55;;;23.80;99.90;;;;;;5051502;28;20094;-68
2021/12/22 06:09:29;;;;;;;20.33;5.38;;;23.80;99.90;;;;;;5052268;28;20477;-69
2021/12/22 06:12:00;;;;;;;16.95;6.32;;;23.90;99.90;;;;;;5049739;28;20092;-69
2021/12/22 06:14:27;;;;;;;19.25;6.30;;;23.80;99.90;;;;;;5052611;28;20060;-69
2021/12/22 06:16:57;;;;;;;22.45;7.18;;;23.80;99.90;;;;;;5044265;28;20378;-72
2021/12/22 06:19:24;;;;;;;20.17;7.55;;;23.80;99.90;;;;;;5051956;28;20033;-71
2021/12/22 06:21:52;;;;;;;20.10;6.07;;;23.70;99.90;;;;;;5051232;28;20037;-71
2021/12/22 06:24:19;;;;;;;19.27;6.57;;;23.70;99.90;;;;;;5052670;28;20063;-71
2021/12/22 06:26:46;;;;;;;18.20;8.60;;;23.70;99.90;;;;;;5050988;28;20075;-71
2021/12/22 06:29:14;;;;;;;16.23;5.35;;;23.60;99.90;;;;;;5052261;28;20043;-72
2021/12/22 06:31:41;;;;;;;16.45;5.13;;;23.70;99.90;;;;;;5049737;28;20029;-71
2021/12/22 06:34:08;;;;;;;18.33;4.88;;;23.70;99.90;;;;;;5050707;28;20043;-72
2021/12/22 06:36:35;;;;;;;17.65;4.57;;;23.70;99.90;;;;;;5051010;28;20035;-71
2021/12/22 06:39:05;;;;;;;11.77;4.72;;;23.60;99.90;;;;;;5049539;28;20108;-72
2021/12/22 06:41:33;;;;;;;12.27;4.47;;;23.70;99.90;;;;;;5052801;28;20028;-71
2021/12/22 06:44:00;;;;;;;14.57;4.88;;;23.60;99.90;;;;;;5055385;28;20055;-72
2021/12/22 06:46:27;;;;;;;15.85;4.70;;;23.60;99.90;;;;;;5048464;28;20065;-71
2021/12/22 06:48:55;;;;;;;18.10;8.95;;;23.60;99.90;;;;;;5052592;28;20482;-71
2021/12/22 06:51:22;;;;;;;15.48;5.05;;;23.60;99.90;;;;;;5052589;28;20033;-73
2021/12/22 06:53:50;;;;;;;24.85;18.60;;;23.40;99.90;;;;;;5051491;28;20083;-69
2021/12/22 06:56:17;;;;;;;13.98;6.28;;;23.50;99.90;;;;;;5051373;28;20060;-68
2021/12/22 06:58:44;;;;;;;16.20;4.00;;;23.60;99.90;;;;;;5052097;28;20481;-68
2021/12/22 07:01:17;;;;;;;13.05;3.90;;;23.60;99.90;;;;;;5052722;28;20033;-68
2021/12/22 07:03:44;;;;;;;16.75;3.80;;;23.70;99.90;;;;;;5071299;28;20033;-68
2021/12/22 07:06:12;;;;;;;9.75;3.30;;;23.80;99.90;;;;;;5059757;28;20523;-67
2021/12/22 07:08:39;;;;;;;16.33;4.10;;;24.00;99.90;;;;;;5052379;28;20517;-68
2021/12/22 07:11:06;;;;;;;17.55;3.75;;;23.80;99.90;;;;;;5050650;28;20427;-68
2021/12/22 07:13:34;;;;;;;17.67;4.22;;;23.70;99.90;;;;;;5051821;28;20037;-68
2021/12/22 07:16:01;;;;;;;15.18;3.83;;;23.80;99.90;;;;;;5052003;28;20056;-68
2021/12/22 07:18:31;;;;;;;10.63;3.60;;;23.80;99.90;;;;;;5050801;28;20055;-68
2021/12/22 07:20:59;;;;;;;13.93;4.07;;;23.70;99.90;;;;;;5052298;28;20029;-68
2021/12/22 07:23:27;;;;;;;9.05;2.88;;;23.70;99.90;;;;;;5057509;28;20366;-68
2021/12/22 07:25:54;;;;;;;13.50;3.67;;;23.60;99.90;;;;;;5051796;28;20393;-68
2021/12/22 07:28:22;;;;;;;12.48;3.58;;;23.60;99.90;;;;;;5051817;28;20055;-68
2021/12/22 07:30:50;;;;;;;11.32;3.03;;;23.60;99.90;;;;;;5034653;28;20017;-68
2021/12/22 07:33:18;;;;;;;11.43;3.60;;;23.60;99.90;;;;;;5049683;28;20052;-68
2021/12/22 07:35:59;;;;;;;8.43;2.50;;;23.70;99.90;;;;;;5052320;28;20017;-68
2021/12/22 07:38:31;;;;;;;9.85;2.60;;;23.70;99.90;;;;;;5043855;28;20487;-69
2021/12/22 07:41:01;;;;;;;16.23;4.03;;;23.60;99.90;;;;;;5052465;28;20043;-68
2021/12/22 07:43:29;;;;;;;14.32;2.85;;;23.50;99.90;;;;;;5052273;28;20032;-68
2021/12/22 07:45:57;;;;;;;15.60;3.20;;;23.60;99.90;;;;;;5050099;28;20397;-68
2021/12/22 07:48:25;;;;;;;17.73;4.55;;;23.60;99.90;;;;;;5048936;28;20099;-68
2021/12/22 07:50:53;;;;;;;13.55;3.38;;;23.50;99.90;;;;;;5037341;28;20057;-68
2021/12/22 07:53:21;;;;;;;11.07;2.60;;;23.60;99.90;;;;;;5055372;28;20389;-68
2021/12/22 07:55:53;;;;;;;11.30;3.20;;;23.70;99.90;;;;;;5055850;28;20381;-68
2021/12/22 07:58:22;;;;;;;11.23;2.90;;;23.60;99.90;;;;;;5054497;28;20543;-68
2021/12/22 08:00:50;;;;;;;11.50;2.97;;;23.60;99.90;;;;;;5055500;28;20051;-68
2021/12/22 08:03:18;;;;;;;11.77;3.53;;;23.60;99.90;;;;;;5049636;28;20433;-68
2021/12/22 08:05:45;;;;;;;12.70;2.97;;;23.50;99.90;;;;;;5054536;28;20170;-68
2021/12/22 08:08:12;;;;;;;13.00;3.13;;;23.50;99.90;;;;;;5055609;28;20472;-68
2021/12/22 08:10:41;;;;;;;14.35;3.15;;;23.50;99.90;;;;;;5036495;28;20029;-68
2021/12/22 08:13:08;;;;;;;13.68;2.88;;;23.50;99.90;;;;;;5054170;28;20072;-68
2021/12/22 08:15:36;;;;;;;17.63;3.03;;;23.40;99.90;;;;;;5054103;28;20393;-68
2021/12/22 08:18:03;;;;;;;12.80;2.90;;;23.40;99.90;;;;;;5055057;28;20025;-68
2021/12/22 08:20:30;;;;;;;14.82;3.10;;;23.40;99.90;;;;;;5059908;28;20035;-67
2021/12/22 08:22:58;;;;;;;9.63;2.95;;;23.40;99.90;;;;;;5057177;28;20025;-68
2021/12/22 08:25:28;;;;;;;13.57;2.80;;;23.40;99.90;;;;;;5053242;28;20029;-67
2021/12/22 08:27:55;;;;;;;18.05;3.28;;;23.40;99.90;;;;;;5050353;28;20033;-68
2021/12/22 08:30:23;;;;;;;8.88;2.63;;;23.40;99.90;;;;;;5054258;28;20025;-67
2021/12/22 08:32:50;;;;;;;15.57;3.85;;;23.30;99.90;;;;;;5054627;28;20025;-66
2021/12/22 08:35:20;;;;;;;21.48;3.53;;;23.40;99.90;;;;;;5056074;28;20025;-67
2021/12/22 08:40:33;;;;;;;22.67;4.05;;;23.30;99.90;;;;;;5068290;28;20056;-67
2021/12/22 08:43:00;;;;;;;15.23;3.10;;;23.30;99.90;;;;;;5063094;28;20091;-67
2021/12/22 08:45:27;;;;;;;15.02;3.10;;;23.20;99.90;;;;;;5059343;28;20024;-67
2021/12/22 08:47:55;;;;;;;14.88;3.13;;;23.20;99.90;;;;;;5066589;28;20072;-67
2021/12/22 08:50:24;;;;;;;11.02;3.15;;;23.10;99.90;;;;;;5063715;28;20564;-67
2021/12/22 08:52:54;;;;;;;15.40;3.35;;;23.10;99.90;;;;;;5056037;28;20413;-67
2021/12/22 08:55:21;;;;;;;9.68;2.60;;;23.10;99.90;;;;;;5059258;28;20683;-67
2021/12/22 08:57:49;;;;;;;13.32;3.60;;;23.10;99.90;;;;;;5052379;28;20029;-67
2021/12/22 09:00:16;;;;;;;9.73;2.72;;;23.10;99.90;;;;;;5061378;28;20025;-67
2021/12/22 09:02:45;;;;;;;15.95;4.13;;;23.20;99.90;;;;;;5056488;28;20130;-68
2021/12/22 09:05:12;;;;;;;19.85;3.65;;;23.20;99.90;;;;;;5057551;28;20043;-68
2021/12/22 09:07:39;;;;;;;14.52;2.90;;;23.10;99.90;;;;;;5058432;28;20036;-68
2021/12/22 09:10:07;;;;;;;12.65;2.67;;;23.10;99.90;;;;;;5055021;28;20528;-68
2021/12/22 09:12:34;;;;;;;11.07;2.40;;;23.10;99.90;;;;;;5057958;28;20056;-68
2021/12/22 09:15:02;;;;;;;12.38;2.13;;;23.10;99.90;;;;;;5056503;28;20037;-68
2021/12/22 09:17:29;;;;;;;9.15;2.65;;;23.10;99.90;;;;;;5055625;28;20037;-68
2021/12/22 09:19:57;;;;;;;14.02;3.33;;;23.10;99.90;;;;;;5056541;28;20090;-68
2021/12/22 09:22:25;;;;;;;11.05;3.13;;;23.10;99.90;;;;;;5059680;28;20496;-68
2021/12/22 09:24:53;;;;;;;10.70;2.97;;;23.10;99.90;;;;;;5059088;28;20037;-67
2021/12/22 09:27:20;;;;;;;12.88;3.60;;;23.10;99.90;;;;;;5063823;28;20040;-68
2021/12/22 09:29:47;;;;;;;14.90;3.42;;;23.00;99.90;;;;;;5061443;28;20508;-68
2021/12/22 09:32:18;;;;;;;10.10;2.80;;;23.00;99.90;;;;;;5065861;28;20037;-68
2021/12/22 09:34:46;;;;;;;19.88;2.90;;;23.00;99.90;;;;;;5063742;28;20033;-68
2021/12/22 09:37:14;;;;;;;13.75;2.78;;;23.00;99.90;;;;;;5073781;28;20039;-68
2021/12/22 09:39:41;;;;;;;15.73;3.33;;;23.00;99.90;;;;;;5082522;28;20041;-68
2021/12/22 09:42:10;;;;;;;13.00;3.92;;;23.10;99.90;;;;;;5066847;28;20036;-68
2021/12/22 09:44:44;;;;;;;11.18;2.85;;;23.10;99.90;;;;;;5047211;28;20097;-68
2021/12/22 09:47:13;;;;;;;13.13;3.13;;;23.10;99.90;;;;;;5056618;28;20049;-68
2021/12/22 09:52:27;;;;;;;15.45;3.42;;;23.00;99.90;;;;;;5067332;28;20021;-68
2021/12/22 09:54:59;;;;;;;12.07;3.30;;;23.00;99.90;;;;;;5072954;28;20037;-68
2021/12/22 09:57:28;;;;;;;17.45;3.83;;;23.10;99.90;;;;;;5074494;28;20044;-68
2021/12/22 09:59:58;;;;;;;11.13;2.75;;;23.00;99.90;;;;;;5075962;28;20009;-68
2021/12/22 10:02:29;;;;;;;13.00;3.22;;;23.00;99.90;;;;;;5068516;28;20025;-68
2021/12/22 10:04:59;;;;;;;20.95;3.35;;;23.00;99.90;;;;;;5060749;28;20032;-67
2021/12/22 10:07:30;;;;;;;11.80;3.72;;;23.00;99.90;;;;;;5064852;28;20036;-67
2021/12/22 10:10:07;;;;;;;14.05;3.40;;;23.00;99.90;;;;;;5059588;28;20033;-68
2021/12/22 10:12:35;;;;;;;8.27;2.63;;;23.00;99.90;;;;;;5063088;28;20017;-68
2021/12/22 10:15:05;;;;;;;9.23;3.20;;;23.00;99.90;;;;;;5065460;28;20059;-68
2021/12/22 10:17:44;;;;;;;14.30;3.75;;;23.00;99.90;;;;;;5056628;28;20021;-68
2021/12/22 10:20:13;;;;;;;17.35;4.03;;;23.00;99.90;;;;;;5058479;28;20024;-68
2021/12/22 10:22:45;;;;;;;9.13;2.47;;;23.00;99.90;;;;;;5059437;28;20032;-68
2021/12/22 10:25:17;;;;;;;18.80;3.85;;;23.00;99.90;;;;;;5058452;28;20037;-68
2021/12/22 10:28:04;;;;;;;16.52;3.97;;;23.00;99.90;;;;;;5051658;28;20112;-67
2021/12/22 10:30:37;;;;;;;23.63;3.72;;;23.00;99.90;;;;;;5057487;28;20027;-68
2021/12/22 10:33:22;;;;;;;15.35;3.10;;;22.90;99.90;;;;;;5058362;28;20167;-68
2021/12/22 10:35:55;;;;;;;10.93;3.05;;;22.90;99.90;;;;;;5064313;28;20025;-68
2021/12/22 10:38:26;;;;;;;16.42;3.40;;;22.90;99.90;;;;;;5059984;28;20087;-68
2021/12/22 10:40:56;;;;;;;13.00;3.65;;;22.90;99.90;;;;;;5058786;28;20105;-67
2021/12/22 10:43:28;;;;;;;16.02;3.80;;;22.90;99.90;;;;;;5056212;28;20021;-68
2021/12/22 10:45:59;;;;;;;11.23;3.13;;;22.90;99.90;;;;;;5053121;28;20398;-68
2021/12/22 10:51:29;;;;;;;;;;;23.00;99.90;;;;;;5049718;28;20048;-68
2021/12/22 10:53:56;;;;;;;;;;;23.00;99.90;;;;;;5063972;28;20254;-68
2021/12/22 10:56:34;;;;;;;18.23;3.35;;;23.00;99.90;;;;;;5051969;28;20286;-68
2021/12/22 10:59:07;;;;;;;14.63;4.32;;;22.90;99.90;;;;;;5053407;28;20025;-68
2021/12/22 11:01:43;;;;;;;16.42;3.22;;;23.00;99.90;;;;;;5052505;28;20072;-68
2021/12/22 11:04:16;;;;;;;11.70;3.70;;;22.90;99.90;;;;;;5047675;28;20048;-68
2021/12/22 11:06:43;;;;;;;15.88;3.65;;;22.90;99.90;;;;;;5052209;28;20037;-69
2021/12/22 11:09:14;;;;;;;14.98;3.20;;;23.00;99.90;;;;;;5051684;28;20033;-68
2021/12/22 11:11:51;;;;;;;17.98;4.20;;;23.00;99.90;;;;;;5051135;28;20558;-68
2021/12/22 11:14:23;;;;;;;19.10;3.67;;;23.00;99.90;;;;;;5043291;28;20036;-68
2021/12/22 11:16:59;;;;;;;17.00;4.03;;;23.00;99.90;;;;;;5049380;28;20079;-68
2021/12/22 11:19:29;;;;;;;14.40;3.40;;;23.00;99.90;;;;;;5051799;28;20116;-68
2021/12/22 11:22:07;;;;;;;20.02;3.85;;;23.00;99.90;;;;;;5052138;28;20839;-68
2021/12/22 11:24:38;;;;;;;12.68;3.28;;;23.00;99.90;;;;;;5055083;28;20022;-68
2021/12/22 11:27:06;;;;;;;17.15;3.35;;;23.00;99.90;;;;;;5056724;28;20024;-68
2021/12/22 11:29:38;;;;;;;15.73;3.25;;;23.00;99.90;;;;;;5056611;28;20064;-68
2021/12/22 11:32:07;;;;;;;17.20;4.18;;;23.00;99.90;;;;;;5055452;28;20124;-68
2021/12/22 11:34:36;;;;;;;14.15;3.17;;;23.00;99.90;;;;;;5052188;28;20087;-68
2021/12/22 11:37:07;;;;;;;17.05;4.18;;;23.00;99.90;;;;;;5049957;28;20506;-68
2021/12/22 11:39:34;;;;;;;16.48;3.50;;;23.00;99.90;;;;;;5056111;28;20021;-67
2021/12/22 11:42:08;;;;;;;13.98;4.28;;;23.00;99.90;;;;;;5050351;28;20100;-68
2021/12/22 11:44:38;;;;;;;10.70;2.63;;;23.00;99.90;;;;;;5037985;28;20033;-68
2021/12/22 11:47:10;;;;;;;10.98;2.80;;;23.00;99.90;;;;;;5049492;28;20045;-68
2021/12/22 11:49:50;;;;;;;16.77;3.58;;;23.00;99.90;;;;;;5037098;28;20025;-68
2021/12/22 11:52:37;;;;;;;11.15;3.80;;;22.90;99.90;;;;;;5036442;28;20071;-68
2021/12/22 11:55:24;;;;;;;21.17;4.50;;;22.90;99.90;;;;;;5062729;28;20056;-68
2021/12/22 11:58:11;;;;;;;12.35;3.53;;;22.90;99.90;;;;;;5051490;28;20032;-68
2021/12/22 12:00:41;;;;;;;16.70;3.55;;;23.00;99.90;;;;;;5040212;28;20025;-69
2021/12/22 12:03:28;;;;;;;16.27;3.50;;;23.00;99.90;;;;;;5049092;28;20029;-68
2021/12/22 12:06:12;;;;;;;13.68;3.40;;;23.00;99.90;;;;;;5054015;28;20432;-68
2021/12/22 12:08:48;;;;;;;11.95;3.40;;;23.00;99.90;;;;;;5054545;28;20025;-68
2021/12/22 12:11:21;;;;;;;17.33;4.07;;;23.00;99.90;;;;;;5055911;28;20108;-67
2021/12/22 12:13:54;;;;;;;20.48;4.55;;;23.00;99.90;;;;;;5055541;28;20024;-67
2021/12/22 12:22:12;;;;;;;14.18;3.97;;;23.00;99.90;;;;;;5051934;28;20044;-67
2021/12/22 12:24:59;;;;;;;15.80;3.50;;;23.00;99.90;;;;;;5055848;28;20086;-67
2021/12/22 12:27:43;;;;;;;23.42;4.40;;;23.00;99.90;;;;;;5055137;28;20017;-67
2021/12/22 12:30:34;;;;;;;16.00;4.57;;;23.00;99.90;;;;;;5036388;28;20025;-67
2021/12/22 12:33:03;;;;;;;18.02;3.50;;;22.90;99.90;;;;;;5044258;28;20470;-67
2021/12/22 12:35:33;;;;;;;18.52;4.30;;;22.90;99.90;;;;;;5052683;28;20358;-67
2021/12/22 12:38:17;;;;;;;17.30;3.67;;;22.90;99.90;;;;;;5043078;28;20043;-67
2021/12/22 12:41:06;;;;;;;18.33;3.97;;;22.90;99.90;;;;;;5035655;28;20462;-67
2021/12/22 12:43:42;;;;;;;18.42;4.00;;;23.00;99.90;;;;;;5055379;28;20061;-67
2021/12/22 12:49:07;;;;;;;16.00;3.92;;;22.90;99.90;;;;;;5055209;28;20029;-67
2021/12/22 12:51:46;;;;;;;21.63;4.97;;;22.90;99.90;;;;;;5054865;28;20104;-67
2021/12/22 12:54:24;;;;;;;23.38;5.07;;;22.90;99.90;;;;;;5054433;28;20025;-67
2021/12/22 12:56:54;;;;;;;28.33;5.20;;;22.90;99.90;;;;;;5053423;28;20056;-67
2021/12/22 12:59:27;;;;;;;17.63;3.88;;;22.90;99.90;;;;;;5050501;28;20769;-68
2021/12/22 13:01:59;;;;;;;19.63;4.13;;;22.90;99.90;;;;;;5054429;28;20032;-68
2021/12/22 13:04:41;;;;;;;20.23;4.43;;;22.90;99.90;;;;;;5055154;28;20390;-67
2021/12/22 13:07:12;;;;;;;16.25;4.28;;;22.90;99.90;;;;;;5054456;28;20044;-67
2021/12/22 13:09:47;;;;;;;17.98;4.63;;;22.90;99.90;;;;;;5054744;28;20032;-68
2021/12/22 13:17:49;;;;;;;17.13;4.55;;;22.90;99.90;;;;;;5042074;28;20098;-68
2021/12/22 13:20:22;;;;;;;21.58;4.40;;;22.90;99.90;;;;;;5034488;28;20072;-68
2021/12/22 13:22:52;;;;;;;15.88;3.83;;;22.80;99.90;;;;;;5032903;28;20045;-68
2021/12/22 13:25:30;;;;;;;16.67;5.05;;;22.80;99.90;;;;;;5039331;28;20029;-68
2021/12/22 13:28:05;;;;;;;17.88;5.00;;;22.90;99.90;;;;;;5054164;28;20017;-68